Aeroporto :
LOGIN :

Iscrizione | Disclaimer

   EN    FR    IT 

 










Sommario :    VFR   VFR Marginale   IFR   IFR Intensivo   IFR Molto Intensivo
Visibilità : 
Base nubi : 
>= 8 km
>= 3000ft
5 / 8 km
1000 / 3000 ft
1500m / 5 km
500 / 1000 ft
800 / 1500m
200 / 500 ft
< 800m
< 200 ft
Simboli :   Temporali  Nebbia  Neve Forte  Precipitazioni Forti  Vento > 20 kt
SIGMETs :   Varie  Temporali  Ghiacco  Turbolenza  Onda orograficha  Ceneri Vulcaniche







- Altitudine del aeroporto : 53 ft
- Codice IATA : HRT


EGXU - RAF Linton-on-Ouse

ULTIMO METAR :
  • 161250Z 18009KT 9999 FEW012 SCT020 BKN040 16/13 Q1012 WHT TEMPO FEW020 BLU

METARs OBSOLETI :
  • 161150Z 17011KT 9999 FEW013 BKN040 15/12 Q1012 BLU TEMPO SCT015 WHT
  • 161121Z 18010KT 9999 FEW008 BKN042 14/12 Q1013 BLU TEMPO SCT008 GRN
  • 161050Z 17009KT 9999 SCT008 BKN044 14/12 Q1013 GRN TEMPO FEW012 BLU

TAF TAF EGXU
Valido dal 16 a 12 ore il 16 a 21 ore UTC


161103Z 1612/1621 20010KT 9999 BKN044
TEMPO 1612/1618 SCT015
Nessun NOTAM noto per questo aeroporto.



MetMap, La meteo Aeronautica in un colpo d'occhio ! - Copyright ORBIFLY Dicembre 2007 - Disclaimer

ORBIFLY MET'MAP TEAM :

Programmazione e sviluppo : Alexandra Zaïnal
Concezione e sviluppo : Baudouin d'Aumeries
Co-Programmazione e sviluppo : Marc-Olivier Méhu
Supporto tecnico e logistico : Manuel Goepfert
Aiuto per la traduzione : Arnaldo La Scala

Contatto : metmap@orbifly.com




FONTI E CREDITI :

   NOAA